createdAt,value
2023-04-03T00:03:39.273Z,6.00
2023-04-03T00:07:21.321Z,5.90
2023-04-03T00:11:04.047Z,5.90
2023-04-03T00:14:45.916Z,5.90
2023-04-03T00:18:27.713Z,5.80
2023-04-03T00:22:09.490Z,5.80
2023-04-03T00:25:54.215Z,5.70
2023-04-03T00:29:35.984Z,5.70
2023-04-03T00:33:18.026Z,5.70
2023-04-03T00:36:59.900Z,5.60
2023-04-03T00:40:44.697Z,5.60
2023-04-03T00:44:29.437Z,5.50
2023-04-03T00:48:15.842Z,5.40
2023-04-03T00:51:59.674Z,5.40
2023-04-03T00:55:43.866Z,5.40
2023-04-03T00:59:31.676Z,5.30
2023-04-03T01:03:13.544Z,5.20
2023-04-03T01:06:58.984Z,5.20
2023-04-03T01:10:40.956Z,5.20
2023-04-03T01:14:22.709Z,5.10
2023-04-03T01:18:05.824Z,5.20
2023-04-03T01:22:20.775Z,5.10
2023-04-03T01:26:03.728Z,5.00
2023-04-03T01:29:46.345Z,4.90
2023-04-03T01:33:28.235Z,4.80
2023-04-03T01:37:10.057Z,4.80
2023-04-03T01:40:51.775Z,4.80
2023-04-03T01:44:33.538Z,4.70
2023-04-03T01:48:15.312Z,4.70
2023-04-03T01:51:57.079Z,4.60
2023-04-03T01:55:38.820Z,4.60
2023-04-03T01:59:20.707Z,4.50
2023-04-03T02:03:02.742Z,4.50
2023-04-03T02:06:44.509Z,4.50
2023-04-03T02:10:26.474Z,4.40
2023-04-03T02:14:08.304Z,4.40
2023-04-03T02:17:50.333Z,4.30
2023-04-03T02:21:32.105Z,4.30
2023-04-03T02:25:13.895Z,4.30
2023-04-03T02:28:55.717Z,4.20
2023-04-03T02:32:37.510Z,4.10
2023-04-03T02:36:19.339Z,4.10
2023-04-03T02:40:01.127Z,4.10
2023-04-03T02:43:42.895Z,4.00
2023-04-03T02:47:24.815Z,4.00
2023-04-03T02:51:06.922Z,4.00
2023-04-03T02:54:48.977Z,3.90
2023-04-03T02:58:30.818Z,3.80
2023-04-03T03:02:12.634Z,3.80
2023-04-03T03:06:12.676Z,3.70
2023-04-03T03:09:54.452Z,3.70
2023-04-03T03:13:36.852Z,3.70
2023-04-03T03:17:19.054Z,3.60
2023-04-03T03:21:03.310Z,3.60
2023-04-03T03:24:45.275Z,3.50
2023-04-03T03:28:27.722Z,3.50
2023-04-03T03:32:09.967Z,3.50
2023-04-03T03:35:52.624Z,3.40
2023-04-03T03:39:34.427Z,3.30
2023-04-03T03:43:16.693Z,3.30
2023-04-03T03:46:58.504Z,3.30
2023-04-03T03:50:40.379Z,3.20
2023-04-03T03:54:22.130Z,3.20
2023-04-03T03:58:04.545Z,3.10
2023-04-03T04:01:46.311Z,3.10
2023-04-03T04:05:28.151Z,3.10
2023-04-03T04:09:10.631Z,3.10
2023-04-03T04:12:52.592Z,3.00
2023-04-03T04:16:34.510Z,3.00
2023-04-03T04:20:16.554Z,2.90
2023-04-03T04:23:58.564Z,2.90
2023-04-03T04:27:40.523Z,2.90
2023-04-03T04:31:22.304Z,2.90
2023-04-03T04:35:05.090Z,2.80
2023-04-03T04:38:47.410Z,2.80
2023-04-03T04:42:29.253Z,2.70
2023-04-03T04:46:14.811Z,2.70
2023-04-03T04:49:56.686Z,2.60
2023-04-03T04:53:38.832Z,2.60
2023-04-03T04:57:21.022Z,2.50
2023-04-03T05:01:08.248Z,2.50
2023-04-03T05:04:51.382Z,2.40
2023-04-03T05:08:33.608Z,2.40
2023-04-03T05:12:15.590Z,2.40
2023-04-03T05:15:57.394Z,2.30
2023-04-03T05:19:39.149Z,2.30
2023-04-03T05:23:20.885Z,2.20
2023-04-03T05:27:03.391Z,2.20
2023-04-03T05:30:45.125Z,2.20
2023-04-03T05:34:26.980Z,2.10
2023-04-03T05:38:09.134Z,2.10
2023-04-03T05:41:51.082Z,2.00
2023-04-03T05:45:33.129Z,2.00
2023-04-03T05:49:15.000Z,2.00
2023-04-03T05:52:59.705Z,1.90
2023-04-03T05:56:41.521Z,1.90
2023-04-03T06:00:23.679Z,1.80
2023-04-03T06:04:05.790Z,1.80
2023-04-03T06:07:47.676Z,1.80
2023-04-03T06:11:29.650Z,1.80
2023-04-03T06:15:12.749Z,1.80
2023-04-03T06:18:54.506Z,1.80
2023-04-03T06:22:36.935Z,1.80
2023-04-03T06:26:18.985Z,1.80
2023-04-03T06:30:01.052Z,1.80
2023-04-03T06:33:43.074Z,1.80
2023-04-03T06:37:27.176Z,1.80
2023-04-03T06:41:08.968Z,1.90
2023-04-03T06:44:51.084Z,1.90
2023-04-03T06:48:32.880Z,1.90
2023-04-03T06:52:14.692Z,1.90
2023-04-03T06:55:56.633Z,2.00
2023-04-03T06:59:38.433Z,2.00
2023-04-03T07:03:20.189Z,2.10
2023-04-03T07:07:02.249Z,2.20
2023-04-03T07:10:44.079Z,2.30
2023-04-03T07:14:26.021Z,2.40
2023-04-03T07:18:08.297Z,2.70
2023-04-03T07:21:50.102Z,2.90
2023-04-03T07:25:32.771Z,3.30
2023-04-03T07:29:15.072Z,3.50
2023-04-03T07:32:57.126Z,3.60
2023-04-03T07:36:42.275Z,3.90
2023-04-03T07:40:24.113Z,4.10
2023-04-03T07:44:06.542Z,4.40
2023-04-03T07:47:49.316Z,4.70
2023-04-03T07:51:31.848Z,5.00
2023-04-03T07:55:13.948Z,5.20
2023-04-03T07:58:56.199Z,5.50
2023-04-03T08:02:38.085Z,5.80
2023-04-03T08:06:23.842Z,5.90
2023-04-03T08:10:11.533Z,6.00
2023-04-03T08:13:53.712Z,6.10
2023-04-03T08:17:36.132Z,6.40
2023-04-03T08:21:17.995Z,6.70
2023-04-03T08:24:59.968Z,7.10
2023-04-03T08:28:42.338Z,7.50
2023-04-03T08:32:24.434Z,8.00
2023-04-03T08:36:08.710Z,8.40
2023-04-03T08:39:51.100Z,8.70
2023-04-03T08:43:49.644Z,8.90
2023-04-03T08:47:47.089Z,9.20
2023-04-03T08:51:29.614Z,9.40
2023-04-03T08:55:20.707Z,9.50
2023-04-03T08:59:16.671Z,9.50
2023-04-03T09:02:58.516Z,9.40
2023-04-03T09:06:40.734Z,9.30
2023-04-03T09:10:29.068Z,9.40
2023-04-03T09:14:45.612Z,9.60
2023-04-03T09:18:37.109Z,9.80
2023-04-03T09:22:25.783Z,10.20
2023-04-03T09:26:15.475Z,10.70
2023-04-03T09:29:59.037Z,11.10
2023-04-03T09:33:41.937Z,11.40
2023-04-03T09:37:44.353Z,11.60
2023-04-03T09:41:26.104Z,11.80
2023-04-03T09:45:25.768Z,12.00
2023-04-03T09:49:12.661Z,12.10
2023-04-03T09:52:54.422Z,12.30
2023-04-03T09:56:36.336Z,12.50
2023-04-03T10:00:22.950Z,13.40
2023-04-03T10:04:11.828Z,14.20
2023-04-03T10:08:08.821Z,14.40
2023-04-03T10:12:13.215Z,14.40
2023-04-03T10:16:01.267Z,15.10
2023-04-03T10:19:46.119Z,15.60
2023-04-03T10:23:48.919Z,15.80
2023-04-03T10:28:01.127Z,16.10
2023-04-03T10:32:21.046Z,17.00
2023-04-03T10:36:14.289Z,18.00
2023-04-03T10:40:06.144Z,18.40
2023-04-03T10:43:50.644Z,18.80
2023-04-03T10:47:52.290Z,18.60
2023-04-03T10:52:02.350Z,18.20
2023-04-03T10:56:01.898Z,17.90
2023-04-03T10:59:58.484Z,17.90
2023-04-03T11:03:44.388Z,18.70
2023-04-03T11:07:32.681Z,19.50
2023-04-03T11:11:18.715Z,20.20
2023-04-03T11:15:02.817Z,20.60
2023-04-03T11:19:11.533Z,20.60
2023-04-03T11:22:59.792Z,21.20
2023-04-03T11:26:43.365Z,22.10
2023-04-03T11:30:42.951Z,22.10
2023-04-03T11:34:49.035Z,21.70
2023-04-03T11:38:40.522Z,22.00
2023-04-03T11:42:38.291Z,22.50
2023-04-03T11:46:20.952Z,23.20
2023-04-03T11:50:06.288Z,23.50
2023-04-03T11:53:48.464Z,24.00
2023-04-03T11:57:48.315Z,24.40
2023-04-03T12:01:54.786Z,24.30
2023-04-03T12:05:37.216Z,24.50
2023-04-03T12:09:31.793Z,25.00
2023-04-03T12:13:17.633Z,25.50
2023-04-03T12:17:00.808Z,26.20
2023-04-03T12:20:56.035Z,26.60
2023-04-03T12:24:43.677Z,27.00
2023-04-03T12:28:25.801Z,27.00
2023-04-03T12:32:08.305Z,26.50
2023-04-03T12:36:09.540Z,26.50
2023-04-03T12:39:58.945Z,27.00
2023-04-03T12:44:01.551Z,27.50
2023-04-03T12:47:44.631Z,27.80
2023-04-03T12:51:42.656Z,28.20
2023-04-03T12:55:24.964Z,28.20
2023-04-03T12:59:27.314Z,28.50
2023-04-03T13:03:27.826Z,29.00
2023-04-03T13:07:26.597Z,28.90
2023-04-03T13:11:12.969Z,28.50
2023-04-03T13:14:57.775Z,28.10
2023-04-03T13:18:39.675Z,28.10
2023-04-03T13:22:40.294Z,28.60
2023-04-03T13:26:25.164Z,28.50
2023-04-03T13:30:08.240Z,27.70
2023-04-03T13:34:12.931Z,27.00
2023-04-03T13:37:57.233Z,26.90
2023-04-03T13:41:42.097Z,27.30
2023-04-03T13:45:31.797Z,27.70
2023-04-03T13:49:44.076Z,27.40
2023-04-03T13:53:26.836Z,27.30
2023-04-03T13:57:16.080Z,27.50
2023-04-03T14:01:17.936Z,27.90
2023-04-03T14:05:02.829Z,28.50
2023-04-03T14:08:46.441Z,28.50
2023-04-03T14:12:31.895Z,28.10
2023-04-03T14:16:21.037Z,28.40
2023-04-03T14:20:03.642Z,28.60
2023-04-03T14:23:46.741Z,28.40
2023-04-03T14:27:31.322Z,28.50
2023-04-03T14:31:13.975Z,28.50
2023-04-03T14:34:56.683Z,28.40
2023-04-03T14:38:38.465Z,28.10
2023-04-03T14:42:24.667Z,27.90
2023-04-03T14:46:11.476Z,27.80
2023-04-03T14:49:53.518Z,27.50
2023-04-03T14:53:39.178Z,27.30
2023-04-03T14:57:25.076Z,27.30
2023-04-03T15:01:07.575Z,27.40
2023-04-03T15:04:51.320Z,27.10
2023-04-03T15:08:34.137Z,26.70
2023-04-03T15:12:16.226Z,26.30
2023-04-03T15:15:58.804Z,25.80
2023-04-03T15:19:41.313Z,25.20
2023-04-03T15:23:27.064Z,24.90
2023-04-03T15:27:09.371Z,24.60
2023-04-03T15:30:51.958Z,24.10
2023-04-03T15:34:33.758Z,24.00
2023-04-03T15:38:15.874Z,24.10
2023-04-03T15:42:00.792Z,23.80
2023-04-03T15:45:43.351Z,23.70
2023-04-03T15:49:25.459Z,23.60
2023-04-03T15:53:07.507Z,23.20
2023-04-03T15:56:50.399Z,22.60
2023-04-03T16:00:33.530Z,21.90
2023-04-03T16:04:16.742Z,21.10
2023-04-03T16:08:01.351Z,20.20
2023-04-03T16:11:44.368Z,19.60
2023-04-03T16:15:27.502Z,19.20
2023-04-03T16:19:10.482Z,18.90
2023-04-03T16:22:52.672Z,18.90
2023-04-03T16:26:34.486Z,18.80
2023-04-03T16:30:16.349Z,18.70
2023-04-03T16:33:59.426Z,18.60
2023-04-03T16:37:41.768Z,18.50
2023-04-03T16:41:23.639Z,18.40
2023-04-03T16:45:07.104Z,18.30
2023-04-03T16:48:48.927Z,18.20
2023-04-03T16:52:30.781Z,18.20
2023-04-03T16:56:12.546Z,18.00
2023-04-03T16:59:54.738Z,17.80
2023-04-03T17:03:36.652Z,17.50
2023-04-03T17:07:20.219Z,17.30
2023-04-03T17:11:02.097Z,17.20
2023-04-03T17:14:44.547Z,17.00
2023-04-03T17:18:27.561Z,16.90
2023-04-03T17:22:10.253Z,16.80
2023-04-03T17:25:52.409Z,16.90
2023-04-03T17:29:34.347Z,16.80
2023-04-03T17:33:16.387Z,16.70
2023-04-03T17:36:58.456Z,16.50
2023-04-03T17:40:45.221Z,16.30
2023-04-03T17:44:27.580Z,16.30
2023-04-03T17:48:09.673Z,16.20
2023-04-03T17:51:54.265Z,16.10
2023-04-03T17:55:38.974Z,16.10
2023-04-03T17:59:21.062Z,16.10
2023-04-03T18:03:03.801Z,16.00
2023-04-03T18:06:51.249Z,15.90
2023-04-03T18:10:35.249Z,15.80
2023-04-03T18:14:21.606Z,15.70
2023-04-03T18:18:03.637Z,15.70
2023-04-03T18:21:48.070Z,15.60
2023-04-03T18:29:18.183Z,15.40
2023-04-03T18:33:00.243Z,15.20
2023-04-03T18:36:42.089Z,15.10
2023-04-03T18:40:24.262Z,15.00
2023-04-03T18:44:10.545Z,14.90
2023-04-03T18:47:52.627Z,14.80
2023-04-03T18:51:34.533Z,14.70
2023-04-03T18:55:20.385Z,14.60
2023-04-03T18:59:02.518Z,14.40
2023-04-03T19:02:46.014Z,14.30
2023-04-03T19:06:28.440Z,14.10
2023-04-03T19:10:17.358Z,14.00
2023-04-03T19:14:14.376Z,13.80
2023-04-03T19:17:58.014Z,13.80
2023-04-03T19:21:42.587Z,13.60
2023-04-03T19:25:24.636Z,13.50
2023-04-03T19:29:06.456Z,13.40
2023-04-03T19:32:48.300Z,13.30
2023-04-03T19:36:31.369Z,13.20
2023-04-03T19:40:13.695Z,13.10
2023-04-03T19:43:56.659Z,12.90
2023-04-03T19:47:38.859Z,12.80
2023-04-03T19:51:20.886Z,12.70
2023-04-03T19:55:02.731Z,12.60
2023-04-03T19:58:45.766Z,12.50
2023-04-03T20:02:27.827Z,12.40
2023-04-03T20:06:09.799Z,12.30
2023-04-03T20:09:51.593Z,12.10
2023-04-03T20:13:33.501Z,12.00
2023-04-03T20:17:15.895Z,11.90
2023-04-03T20:21:00.490Z,11.80
2023-04-03T20:24:42.831Z,11.70
2023-04-03T20:28:25.417Z,11.50
2023-04-03T20:32:07.478Z,11.40
2023-04-03T20:35:49.893Z,11.30
2023-04-03T20:39:32.369Z,11.20
2023-04-03T20:43:14.549Z,11.10
2023-04-03T20:46:56.681Z,11.00
2023-04-03T20:50:38.884Z,10.90
2023-04-03T20:54:20.980Z,10.80
2023-04-03T20:58:03.616Z,10.80
2023-04-03T21:01:46.922Z,10.70
2023-04-03T21:05:30.384Z,10.60
2023-04-03T21:09:50.300Z,10.50
2023-04-03T21:14:09.664Z,10.40
2023-04-03T21:18:02.428Z,10.30
2023-04-03T21:21:45.876Z,10.20
2023-04-03T21:25:28.085Z,10.10
2023-04-03T21:29:11.015Z,10.00
2023-04-03T21:32:52.829Z,10.00
2023-04-03T21:36:41.306Z,9.80
2023-04-03T21:40:23.065Z,9.80
2023-04-03T21:44:05.573Z,9.60
2023-04-03T21:47:47.616Z,9.50
2023-04-03T21:51:29.601Z,9.40
2023-04-03T21:55:11.534Z,9.30
2023-04-03T21:58:53.584Z,9.20
2023-04-03T22:02:39.615Z,9.20
2023-04-03T22:06:24.813Z,9.20
2023-04-03T22:10:07.340Z,9.10
2023-04-03T22:13:52.105Z,9.10
2023-04-03T22:17:33.946Z,9.00
2023-04-03T22:21:15.766Z,9.00
2023-04-03T22:24:57.550Z,8.90
2023-04-03T22:28:46.889Z,8.90
2023-04-03T22:32:28.671Z,8.80
2023-04-03T22:36:12.173Z,8.70
2023-04-03T22:39:54.007Z,8.70
2023-04-03T22:43:37.870Z,8.60
2023-04-03T22:47:19.787Z,8.50
2023-04-03T22:51:06.883Z,8.40
2023-04-03T22:54:48.646Z,8.40
2023-04-03T22:58:30.639Z,8.30
2023-04-03T23:02:12.867Z,8.20
2023-04-03T23:05:56.229Z,8.20
2023-04-03T23:09:37.999Z,8.10
2023-04-03T23:13:20.027Z,8.00
2023-04-03T23:17:05.631Z,7.80
2023-04-03T23:20:48.289Z,7.80
2023-04-03T23:24:30.044Z,7.70
2023-04-03T23:28:11.938Z,7.50
2023-04-03T23:31:53.727Z,7.50
2023-04-03T23:35:35.534Z,7.40
2023-04-03T23:39:19.844Z,7.30
2023-04-03T23:43:01.610Z,7.20
2023-04-03T23:46:43.489Z,7.20
2023-04-03T23:50:25.627Z,7.10
2023-04-03T23:54:07.509Z,7.10
2023-04-03T23:57:49.602Z,7.00
